Time;durP1;ratioP1;P1;durP2;ratioP2;P2;SDS_P1;SDS_P2;PMS_P1;PMS_P2;Temp;Humidity;BMP_temperature;BMP_pressure;BME280_temperature;BME280_humidity;BME280_pressure;Samples;Min_cycle;Max_cycle;Signal;HPM_P1;HPM_P2
2023/04/04 00:00:10;;;;;;;0.20;0.20;;;;;;;;;;5066714;28;20207;-68
2023/04/04 00:02:36;;;;;;;0.20;0.20;;;;;;;;;;5055355;28;20270;-69
2023/04/04 00:05:03;;;;;;;0.20;0.20;;;;;;;;;;5066666;28;20203;-70
2023/04/04 00:07:29;;;;;;;0.10;0.10;;;;;;;;;;5071958;28;20251;-69
2023/04/04 00:09:56;;;;;;;0.20;0.20;;;;;;;;;;5066899;28;20238;-69
2023/04/04 00:12:24;;;;;;;0.10;0.10;;;;;;;;;;5071946;28;20258;-69
2023/04/04 00:14:50;;;;;;;0.20;0.20;;;;;;;;;;5066641;28;20546;-69
2023/04/04 00:17:17;;;;;;;0.20;0.20;;;;;;;;;;5071722;28;20305;-69
2023/04/04 00:19:43;;;;;;;0.20;0.20;;;;;;;;;;5066317;28;20266;-69
2023/04/04 00:22:10;;;;;;;0.20;0.20;;;;;;;;;;5071733;28;20301;-69
2023/04/04 00:24:36;;;;;;;0.20;0.20;;;;;;;;;;5066208;28;20210;-69
2023/04/04 00:27:02;;;;;;;0.20;0.20;;;;;;;;;;5071015;28;20454;-69
2023/04/04 00:29:30;;;;;;;0.20;0.20;;;;;;;;;;5066673;28;20209;-69
2023/04/04 00:31:57;;;;;;;0.23;0.23;;;;;;;;;;5070195;28;20507;-68
2023/04/04 00:34:23;;;;;;;0.20;0.20;;;;;;;;;;5067540;28;20232;-69
2023/04/04 00:36:51;;;;;;;0.20;0.20;;;;;;;;;;5069061;28;20242;-69
2023/04/04 00:39:17;;;;;;;0.20;0.20;;;;;;;;;;5068262;28;20604;-69
2023/04/04 00:41:43;;;;;;;0.20;0.20;;;;;;;;;;5068053;28;20251;-69
2023/04/04 00:44:10;;;;;;;0.20;0.20;;;;;;;;;;5068800;28;20229;-69
2023/04/04 00:46:38;;;;;;;0.20;0.20;;;;;;;;;;5067208;28;20515;-69
2023/04/04 00:49:05;;;;;;;0.20;0.20;;;;;;;;;;5068889;28;20244;-69
2023/04/04 00:51:31;;;;;;;0.20;0.20;;;;;;;;;;5066567;28;20512;-69
2023/04/04 00:53:58;;;;;;;0.20;0.20;;;;;;;;;;5070178;28;20276;-69
2023/04/04 00:56:25;;;;;;;0.20;0.20;;;;;;;;;;5065265;28;20248;-69
2023/04/04 00:58:51;;;;;;;0.20;0.20;;;;;;;;;;5071316;28;20213;-70
2023/04/04 01:01:18;;;;;;;0.20;0.20;;;;;;;;;;5064328;28;20242;-68
2023/04/04 01:03:46;;;;;;;0.20;0.20;;;;;;;;;;5072114;28;20349;-69
2023/04/04 01:06:14;;;;;;;0.20;0.20;;;;;;;;;;5063574;28;20337;-69
2023/04/04 01:08:41;;;;;;;0.20;0.20;;;;;;;;;;5072495;28;20440;-69
2023/04/04 01:11:08;;;;;;;0.20;0.20;;;;;;;;;;5063140;28;20242;-68
2023/04/04 01:13:35;;;;;;;0.20;0.20;;;;;;;;;;5073077;28;20234;-69
2023/04/04 01:16:01;;;;;;;0.20;0.20;;;;;;;;;;5062018;28;20242;-68
2023/04/04 01:18:28;;;;;;;0.20;0.20;;;;;;;;;;5073904;28;20506;-69
2023/04/04 01:20:57;;;;;;;0.20;0.20;;;;;;;;;;5061244;28;20312;-69
2023/04/04 01:23:24;;;;;;;0.20;0.20;;;;;;;;;;5074269;28;20495;-69
2023/04/04 01:26:00;;;;;;;0.20;0.20;;;;;;;;;;5060584;28;20249;-69
2023/04/04 01:28:27;;;;;;;0.20;0.20;;;;;;;;;;5073946;28;20239;-68
2023/04/04 01:30:53;;;;;;;0.20;0.20;;;;;;;;;;5060955;28;20305;-68
2023/04/04 01:33:23;;;;;;;0.20;0.20;;;;;;;;;;5074501;28;20234;-69
2023/04/04 01:35:53;;;;;;;0.20;0.20;;;;;;;;;;5060087;28;20266;-69
2023/04/04 01:38:21;;;;;;;0.20;0.20;;;;;;;;;;5074392;28;20210;-69
2023/04/04 01:40:48;;;;;;;0.20;0.20;;;;;;;;;;5059876;28;20316;-68
2023/04/04 01:43:16;;;;;;;0.20;0.20;;;;;;;;;;5074730;28;20535;-69
2023/04/04 01:45:43;;;;;;;0.20;0.20;;;;;;;;;;5059093;28;20241;-69
2023/04/04 01:48:10;;;;;;;0.20;0.20;;;;;;;;;;5075537;28;20376;-69
2023/04/04 01:50:36;;;;;;;0.20;0.20;;;;;;;;;;5057792;28;20249;-69
2023/04/04 01:53:02;;;;;;;0.20;0.20;;;;;;;;;;5076924;28;20462;-69
2023/04/04 01:55:29;;;;;;;0.20;0.20;;;;;;;;;;5056637;28;20226;-69
2023/04/04 01:57:55;;;;;;;0.20;0.20;;;;;;;;;;5077673;28;20229;-69
2023/04/04 02:00:23;;;;;;;0.20;0.20;;;;;;;;;;5055765;28;20231;-68
2023/04/04 02:02:49;;;;;;;0.20;0.20;;;;;;;;;;5078432;28;20210;-69
2023/04/04 02:05:16;;;;;;;0.20;0.20;;;;;;;;;;5054733;28;20209;-68
2023/04/04 02:07:46;;;;;;;0.20;0.20;;;;;;;;;;5079117;28;20396;-68
2023/04/04 02:10:13;;;;;;;0.20;0.20;;;;;;;;;;5054233;28;20523;-68
2023/04/04 02:12:39;;;;;;;0.20;0.20;;;;;;;;;;5079533;28;20396;-69
2023/04/04 02:15:06;;;;;;;0.20;0.20;;;;;;;;;;5064380;28;20222;-69
2023/04/04 02:17:34;;;;;;;0.20;0.20;;;;;;;;;;5069564;28;20312;-69
2023/04/04 02:20:01;;;;;;;0.20;0.20;;;;;;;;;;5064313;28;20238;-69
2023/04/04 02:22:27;;;;;;;0.20;0.20;;;;;;;;;;5069374;28;20463;-68
2023/04/04 02:24:56;;;;;;;0.20;0.20;;;;;;;;;;5064302;28;20209;-69
2023/04/04 02:27:22;;;;;;;0.20;0.20;;;;;;;;;;5069488;28;20549;-68
2023/04/04 02:29:49;;;;;;;0.20;0.20;;;;;;;;;;5063983;28;20243;-69
2023/04/04 02:32:15;;;;;;;0.20;0.20;;;;;;;;;;5069346;28;20268;-69
2023/04/04 02:34:43;;;;;;;0.20;0.20;;;;;;;;;;5064047;28;20421;-69
2023/04/04 02:37:09;;;;;;;0.20;0.20;;;;;;;;;;5069125;28;20242;-69
2023/04/04 02:39:36;;;;;;;0.20;0.20;;;;;;;;;;5063768;28;20278;-69
2023/04/04 02:42:02;;;;;;;0.20;0.20;;;;;;;;;;5067975;28;20300;-69
2023/04/04 02:44:28;;;;;;;0.20;0.20;;;;;;;;;;5064740;28;20395;-69
2023/04/04 02:46:55;;;;;;;0.20;0.20;;;;;;;;;;5067129;28;20496;-68
2023/04/04 02:49:21;;;;;;;0.20;0.20;;;;;;;;;;5065472;28;20206;-69
2023/04/04 02:51:49;;;;;;;0.20;0.20;;;;;;;;;;5065974;28;20300;-69
2023/04/04 02:54:15;;;;;;;0.20;0.20;;;;;;;;;;5066583;28;20273;-69
2023/04/04 02:56:42;;;;;;;0.20;0.20;;;;;;;;;;5065117;28;20242;-69
2023/04/04 02:59:08;;;;;;;0.20;0.20;;;;;;;;;;5067383;28;20206;-68
2023/04/04 03:01:35;;;;;;;0.20;0.20;;;;;;;;;;5064083;28;20267;-68
2023/04/04 03:04:03;;;;;;;0.20;0.20;;;;;;;;;;5068442;28;20625;-69
2023/04/04 03:06:31;;;;;;;0.20;0.20;;;;;;;;;;5063393;28;20564;-69
2023/04/04 03:08:59;;;;;;;0.20;0.20;;;;;;;;;;5068321;28;20206;-69
2023/04/04 03:11:26;;;;;;;0.20;0.20;;;;;;;;;;5062480;28;20249;-69
2023/04/04 03:13:54;;;;;;;0.20;0.20;;;;;;;;;;5069356;28;20509;-69
2023/04/04 03:16:23;;;;;;;0.20;0.20;;;;;;;;;;5062003;28;20676;-69
2023/04/04 03:18:51;;;;;;;0.20;0.20;;;;;;;;;;5069692;28;20212;-69
2023/04/04 03:21:18;;;;;;;0.20;0.20;;;;;;;;;;5062166;28;20279;-69
2023/04/04 03:23:44;;;;;;;0.20;0.20;;;;;;;;;;5069987;28;20294;-69
2023/04/04 03:26:12;;;;;;;0.20;0.20;;;;;;;;;;5061521;28;20295;-69
2023/04/04 03:28:38;;;;;;;0.20;0.20;;;;;;;;;;5070650;28;20240;-69
2023/04/04 03:31:05;;;;;;;0.20;0.20;;;;;;;;;;5060321;28;20638;-69
2023/04/04 03:33:31;;;;;;;0.27;0.27;;;;;;;;;;5071725;28;20251;-69
2023/04/04 03:35:58;;;;;;;0.20;0.20;;;;;;;;;;5059735;28;20249;-68
2023/04/04 03:38:24;;;;;;;0.20;0.20;;;;;;;;;;5072180;28;20591;-69
2023/04/04 03:41:00;;;;;;;0.20;0.20;;;;;;;;;;5058721;28;20240;-69
2023/04/04 03:43:28;;;;;;;0.20;0.20;;;;;;;;;;5071813;28;20272;-69
2023/04/04 03:45:55;;;;;;;1.33;1.33;;;;;;;;;;5058732;28;20244;-69
2023/04/04 03:48:21;;;;;;;0.20;0.20;;;;;;;;;;5072492;28;20205;-69
2023/04/04 03:50:47;;;;;;;0.20;0.20;;;;;;;;;;5058093;28;20245;-68
2023/04/04 03:53:15;;;;;;;0.20;0.20;;;;;;;;;;5073412;28;20274;-68
2023/04/04 03:55:43;;;;;;;0.20;0.20;;;;;;;;;;5057082;28;20241;-68
2023/04/04 03:58:12;;;;;;;0.20;0.20;;;;;;;;;;5073676;28;20206;-68
2023/04/04 04:00:40;;;;;;;0.43;0.43;;;;;;;;;;5056491;28;20310;-69
2023/04/04 04:03:07;;;;;;;0.20;0.20;;;;;;;;;;5074400;28;20457;-68
2023/04/04 04:05:33;;;;;;;0.20;0.20;;;;;;;;;;5055988;28;20458;-68
2023/04/04 04:07:59;;;;;;;0.20;0.20;;;;;;;;;;5075215;28;20439;-69
2023/04/04 04:10:26;;;;;;;0.20;0.20;;;;;;;;;;5055177;28;20210;-68
2023/04/04 04:12:52;;;;;;;0.20;0.20;;;;;;;;;;5076098;28;20273;-68
2023/04/04 04:15:18;;;;;;;0.20;0.20;;;;;;;;;;5053811;28;20229;-68
2023/04/04 04:17:46;;;;;;;0.20;0.20;;;;;;;;;;5077004;28;20277;-68
2023/04/04 04:20:12;;;;;;;0.20;0.20;;;;;;;;;;5053066;28;20273;-68
2023/04/04 04:22:39;;;;;;;0.20;0.20;;;;;;;;;;5078066;28;20217;-68
2023/04/04 04:25:05;;;;;;;0.23;0.23;;;;;;;;;;5066515;28;20245;-68
2023/04/04 04:27:32;;;;;;;0.20;0.20;;;;;;;;;;5054948;28;20224;-69
2023/04/04 04:29:58;;;;;;;0.20;0.20;;;;;;;;;;5066465;28;20222;-68
2023/04/04 04:32:25;;;;;;;0.20;0.20;;;;;;;;;;5071612;28;20312;-68
2023/04/04 04:34:53;;;;;;;0.20;0.20;;;;;;;;;;5065925;28;20237;-69
2023/04/04 04:37:19;;;;;;;0.23;0.23;;;;;;;;;;5071412;28;20487;-69
2023/04/04 04:39:45;;;;;;;0.20;0.20;;;;;;;;;;5066260;28;20381;-68
2023/04/04 04:42:12;;;;;;;0.20;0.20;;;;;;;;;;5071544;28;20414;-69
2023/04/04 04:44:38;;;;;;;0.20;0.20;;;;;;;;;;5066168;28;20262;-68
2023/04/04 04:47:04;;;;;;;0.20;0.20;;;;;;;;;;5070921;28;20501;-69
2023/04/04 04:49:31;;;;;;;0.20;0.20;;;;;;;;;;5066228;28;20397;-69
2023/04/04 04:51:59;;;;;;;0.20;0.20;;;;;;;;;;5069790;28;20261;-69
2023/04/04 04:54:25;;;;;;;0.20;0.20;;;;;;;;;;5067118;28;20488;-69
2023/04/04 04:56:51;;;;;;;0.20;0.20;;;;;;;;;;5068770;28;20514;-69
2023/04/04 04:59:18;;;;;;;0.20;0.20;;;;;;;;;;5067764;28;20210;-68
2023/04/04 05:01:44;;;;;;;0.20;0.20;;;;;;;;;;5068008;28;20247;-68
2023/04/04 05:04:11;;;;;;;0.20;0.20;;;;;;;;;;5068430;28;20425;-69
2023/04/04 05:06:38;;;;;;;0.20;0.20;;;;;;;;;;5066748;28;20257;-68
2023/04/04 05:09:06;;;;;;;0.20;0.20;;;;;;;;;;5069005;28;20276;-69
2023/04/04 05:11:32;;;;;;;0.20;0.20;;;;;;;;;;5065988;28;20568;-69
2023/04/04 05:13:59;;;;;;;0.20;0.20;;;;;;;;;;5070122;28;20459;-69
2023/04/04 05:16:25;;;;;;;0.20;0.20;;;;;;;;;;5065091;28;20435;-69
2023/04/04 05:18:51;;;;;;;0.20;0.20;;;;;;;;;;5070638;28;20211;-70
2023/04/04 05:21:18;;;;;;;0.20;0.20;;;;;;;;;;5063918;28;20254;-69
2023/04/04 05:23:45;;;;;;;0.20;0.20;;;;;;;;;;5071724;28;20283;-69
2023/04/04 05:26:12;;;;;;;0.20;0.20;;;;;;;;;;5063232;28;20584;-69
2023/04/04 05:28:39;;;;;;;0.20;0.20;;;;;;;;;;5072375;28;20245;-69
2023/04/04 05:31:06;;;;;;;0.20;0.20;;;;;;;;;;5062389;28;20247;-69
2023/04/04 05:33:32;;;;;;;0.20;0.20;;;;;;;;;;5072653;28;20485;-69
2023/04/04 05:35:59;;;;;;;0.20;0.20;;;;;;;;;;5061255;28;20265;-69
2023/04/04 05:38:26;;;;;;;0.20;0.20;;;;;;;;;;5073857;28;20224;-69
2023/04/04 05:40:53;;;;;;;0.20;0.20;;;;;;;;;;5060463;28;20248;-69
2023/04/04 05:43:20;;;;;;;0.20;0.20;;;;;;;;;;5074227;28;20217;-69
2023/04/04 05:45:47;;;;;;;0.20;0.20;;;;;;;;;;5059583;28;20307;-69
2023/04/04 05:48:14;;;;;;;0.20;0.20;;;;;;;;;;5075199;28;20372;-69
2023/04/04 05:50:40;;;;;;;0.20;0.20;;;;;;;;;;5058594;28;20249;-68
2023/04/04 05:53:07;;;;;;;0.20;0.20;;;;;;;;;;5075966;28;20226;-69
2023/04/04 05:55:33;;;;;;;0.20;0.20;;;;;;;;;;5057680;28;20568;-68
2023/04/04 05:57:59;;;;;;;0.20;0.20;;;;;;;;;;5076923;28;20244;-69
2023/04/04 06:00:28;;;;;;;0.20;0.20;;;;;;;;;;5056365;28;20379;-68
2023/04/04 06:02:56;;;;;;;0.20;0.20;;;;;;;;;;5077789;28;20250;-69
2023/04/04 06:05:22;;;;;;;0.27;0.27;;;;;;;;;;5056406;28;20232;-69
2023/04/04 06:07:49;;;;;;;0.20;0.20;;;;;;;;;;5077673;28;20236;-70
2023/04/04 06:10:15;;;;;;;0.20;0.20;;;;;;;;;;5055017;28;20237;-70
2023/04/04 06:12:41;;;;;;;0.20;0.20;;;;;;;;;;5078733;28;20205;-69
2023/04/04 06:15:08;;;;;;;0.20;0.20;;;;;;;;;;5056227;28;20557;-68
2023/04/04 06:17:36;;;;;;;0.20;0.20;;;;;;;;;;5079618;28;20217;-69
2023/04/04 06:20:03;;;;;;;0.20;0.20;;;;;;;;;;5064407;28;20372;-69
2023/04/04 06:22:30;;;;;;;0.20;0.20;;;;;;;;;;5069513;28;20417;-69
2023/04/04 06:24:56;;;;;;;0.20;0.20;;;;;;;;;;5064307;28;20204;-69
2023/04/04 06:27:23;;;;;;;0.20;0.20;;;;;;;;;;5069283;28;20247;-68
2023/04/04 06:29:49;;;;;;;0.20;0.20;;;;;;;;;;5064179;28;20501;-69
2023/04/04 06:32:15;;;;;;;0.20;0.20;;;;;;;;;;5069322;28;20300;-68
2023/04/04 06:34:44;;;;;;;0.20;0.20;;;;;;;;;;5064210;28;20206;-69
2023/04/04 06:37:10;;;;;;;0.20;0.20;;;;;;;;;;5069128;28;20272;-69
2023/04/04 06:39:36;;;;;;;0.20;0.20;;;;;;;;;;5064243;28;20384;-67
2023/04/04 06:42:03;;;;;;;0.20;0.20;;;;;;;;;;5068766;28;20248;-68
2023/04/04 06:44:29;;;;;;;0.20;0.20;;;;;;;;;;5064021;28;20309;-68
2023/04/04 06:46:55;;;;;;;0.20;0.20;;;;;;;;;;5066926;28;20300;-67
2023/04/04 06:49:22;;;;;;;0.20;0.20;;;;;;;;;;5065378;28;20234;-67
2023/04/04 06:51:51;;;;;;;0.20;0.20;;;;;;;;;;5066774;28;20262;-68
2023/04/04 06:54:17;;;;;;;0.20;0.20;;;;;;;;;;5066100;28;20246;-67
2023/04/04 06:56:44;;;;;;;0.20;0.20;;;;;;;;;;5065834;28;20488;-67
2023/04/04 06:59:11;;;;;;;0.20;0.20;;;;;;;;;;5066779;28;20548;-68
2023/04/04 07:01:37;;;;;;;0.20;0.20;;;;;;;;;;5065099;28;20280;-67
2023/04/04 07:04:06;;;;;;;0.20;0.20;;;;;;;;;;5067286;28;20234;-68
2023/04/04 07:06:34;;;;;;;0.20;0.20;;;;;;;;;;5064259;28;20289;-70
2023/04/04 07:09:03;;;;;;;0.20;0.20;;;;;;;;;;5067926;28;20462;-69
2023/04/04 07:11:29;;;;;;;0.20;0.20;;;;;;;;;;5063783;28;20294;-69
2023/04/04 07:13:56;;;;;;;0.20;0.20;;;;;;;;;;5068530;28;20511;-70
2023/04/04 07:16:22;;;;;;;0.20;0.20;;;;;;;;;;5062942;28;20268;-69
2023/04/04 07:18:49;;;;;;;0.20;0.20;;;;;;;;;;5069305;28;20216;-69
2023/04/04 07:21:16;;;;;;;0.20;0.20;;;;;;;;;;5061852;28;20281;-69
2023/04/04 07:23:42;;;;;;;0.20;0.20;;;;;;;;;;5070181;28;20529;-69
2023/04/04 07:26:10;;;;;;;0.20;0.20;;;;;;;;;;5061320;28;20261;-69
2023/04/04 07:28:37;;;;;;;0.13;0.13;;;;;;;;;;5070915;28;20377;-69
2023/04/04 07:31:03;;;;;;;0.20;0.20;;;;;;;;;;5060453;28;20318;-69
2023/04/04 07:33:30;;;;;;;0.20;0.20;;;;;;;;;;5071598;28;20204;-69
2023/04/04 07:35:57;;;;;;;0.20;0.20;;;;;;;;;;5059738;28;20672;-70
2023/04/04 07:38:23;;;;;;;0.20;0.20;;;;;;;;;;5072530;28;20281;-69
2023/04/04 07:40:49;;;;;;;0.20;0.20;;;;;;;;;;5058674;28;20242;-70
2023/04/04 07:43:17;;;;;;;0.20;0.20;;;;;;;;;;5073342;28;20204;-70
2023/04/04 07:45:44;;;;;;;0.20;0.20;;;;;;;;;;5057450;28;20244;-70
2023/04/04 07:48:10;;;;;;;0.20;0.20;;;;;;;;;;5073738;28;20241;-70
2023/04/04 07:50:37;;;;;;;0.17;0.17;;;;;;;;;;5056953;28;20287;-69
2023/04/04 07:53:03;;;;;;;0.17;0.17;;;;;;;;;;5074942;28;20211;-69
2023/04/04 07:55:30;;;;;;;0.20;0.20;;;;;;;;;;5055903;28;20520;-69
2023/04/04 07:57:57;;;;;;;0.20;0.20;;;;;;;;;;5078053;28;20239;-69
2023/04/04 08:00:25;;;;;;;0.13;0.13;;;;;;;;;;5058648;28;20225;-69
2023/04/04 08:02:52;;;;;;;0.20;0.20;;;;;;;;;;5080194;28;20239;-69
2023/04/04 08:05:18;;;;;;;0.20;0.20;;;;;;;;;;5058208;28;20217;-69
2023/04/04 08:07:44;;;;;;;0.20;0.20;;;;;;;;;;5080833;28;20270;-69
2023/04/04 08:10:11;;;;;;;0.10;0.10;;;;;;;;;;5056920;28;20278;-69
2023/04/04 08:12:38;;;;;;;0.20;0.20;;;;;;;;;;5081608;28;20218;-69
2023/04/04 08:15:04;;;;;;;0.20;0.20;;;;;;;;;;5066846;28;20207;-68
2023/04/04 08:17:32;;;;;;;0.20;0.20;;;;;;;;;;5071868;28;20259;-70
2023/04/04 08:19:59;;;;;;;0.20;0.20;;;;;;;;;;5066522;28;20270;-69
2023/04/04 08:22:25;;;;;;;0.20;0.20;;;;;;;;;;5071922;28;20284;-69
2023/04/04 08:24:52;;;;;;;0.20;0.20;;;;;;;;;;5066716;28;20204;-69
2023/04/04 08:27:18;;;;;;;0.10;0.10;;;;;;;;;;5071850;28;20245;-69
2023/04/04 08:29:46;;;;;;;0.10;0.10;;;;;;;;;;5066638;28;20432;-69
2023/04/04 08:32:13;;;;;;;0.10;0.10;;;;;;;;;;5071569;28;20262;-69
2023/04/04 08:34:41;;;;;;;0.10;0.10;;;;;;;;;;5066529;28;20214;-70
2023/04/04 08:37:07;;;;;;;0.20;0.20;;;;;;;;;;5071478;28;20474;-70
2023/04/04 08:39:34;;;;;;;0.20;0.20;;;;;;;;;;5066469;28;20272;-70
2023/04/04 08:42:02;;;;;;;0.10;0.10;;;;;;;;;;5070605;28;20554;-70
2023/04/04 08:44:29;;;;;;;0.20;0.20;;;;;;;;;;5066707;28;20204;-70
2023/04/04 08:46:56;;;;;;;0.20;0.20;;;;;;;;;;5069937;28;20235;-70
2023/04/04 08:49:23;;;;;;;0.10;0.10;;;;;;;;;;5067278;28;20204;-70
2023/04/04 08:51:52;;;;;;;0.10;0.10;;;;;;;;;;5068926;28;20265;-69
2023/04/04 08:54:19;;;;;;;0.10;0.10;;;;;;;;;;5068123;28;20424;-69
2023/04/04 08:56:46;;;;;;;0.10;0.10;;;;;;;;;;5068285;28;20233;-69
2023/04/04 08:59:14;;;;;;;0.10;0.10;;;;;;;;;;5068743;28;20232;-70
2023/04/04 09:01:41;;;;;;;0.10;0.10;;;;;;;;;;5067508;28;20268;-69
2023/04/04 09:04:08;;;;;;;0.10;0.10;;;;;;;;;;5069355;28;20204;-70
2023/04/04 09:06:35;;;;;;;0.10;0.10;;;;;;;;;;5066749;28;20257;-70
2023/04/04 09:09:03;;;;;;;0.10;0.10;;;;;;;;;;5068785;28;20273;-69
2023/04/04 09:11:31;;;;;;;0.10;0.10;;;;;;;;;;5065750;28;20333;-70
2023/04/04 09:13:57;;;;;;;0.10;0.10;;;;;;;;;;5070060;28;20234;-70
2023/04/04 09:16:24;;;;;;;0.10;0.10;;;;;;;;;;5064899;28;20282;-69
2023/04/04 09:18:51;;;;;;;0.10;0.10;;;;;;;;;;5071228;28;20285;-69
2023/04/04 09:21:19;;;;;;;0.10;0.10;;;;;;;;;;5063434;28;20242;-68
2023/04/04 09:23:45;;;;;;;0.10;0.10;;;;;;;;;;5072166;28;20249;-67
2023/04/04 09:26:15;;;;;;;0.10;0.10;;;;;;;;;;5063812;28;20264;-68
2023/04/04 09:28:42;;;;;;;0.10;0.10;;;;;;;;;;5072039;28;20569;-68
2023/04/04 09:31:09;;;;;;;0.10;0.10;;;;;;;;;;5063118;28;20243;-67
2023/04/04 09:33:35;;;;;;;0.10;0.10;;;;;;;;;;5072815;28;20205;-67
2023/04/04 09:36:02;;;;;;;0.10;0.10;;;;;;;;;;5062304;28;20260;-67
2023/04/04 09:38:30;;;;;;;0.10;0.10;;;;;;;;;;5073679;28;20226;-67
2023/04/04 09:40:56;;;;;;;0.10;0.10;;;;;;;;;;5060899;28;20287;-67
2023/04/04 09:43:25;;;;;;;0.10;0.10;;;;;;;;;;5074545;28;20507;-68
2023/04/04 09:45:52;;;;;;;0.10;0.10;;;;;;;;;;5059959;28;20452;-67
2023/04/04 09:48:25;;;;;;;0.10;0.10;;;;;;;;;;5075200;28;20201;-67
2023/04/04 09:50:51;;;;;;;0.10;0.10;;;;;;;;;;5060454;28;20427;-67
2023/04/04 09:53:18;;;;;;;0.10;0.10;;;;;;;;;;5074675;28;20214;-67
2023/04/04 09:55:49;;;;;;;0.10;0.10;;;;;;;;;;5059383;28;20274;-67
2023/04/04 09:58:16;;;;;;;0.10;0.10;;;;;;;;;;5074720;28;20237;-67
2023/04/04 10:00:47;;;;;;;0.30;0.30;;;;;;;;;;5058791;28;20255;-69
2023/04/04 10:03:14;;;;;;;0.10;0.10;;;;;;;;;;5075185;28;20270;-60
2023/04/04 10:05:40;;;;;;;0.10;0.10;;;;;;;;;;5058665;28;20253;-68
2023/04/04 10:08:14;;;;;;;0.10;0.10;;;;;;;;;;5075852;28;20452;-68
2023/04/04 10:10:45;;;;;;;0.10;0.10;;;;;;;;;;5058713;28;20248;-69
2023/04/04 10:13:12;;;;;;;0.10;0.10;;;;;;;;;;5075045;28;20272;-69
2023/04/04 10:15:38;;;;;;;0.10;0.10;;;;;;;;;;5058518;28;20453;-69
2023/04/04 10:18:27;;;;;;;0.10;0.10;;;;;;;;;;5078764;28;20332;-68
2023/04/04 10:20:55;;;;;;;0.10;0.10;;;;;;;;;;5059735;28;20343;-69
2023/04/04 10:23:23;;;;;;;0.10;0.10;;;;;;;;;;5073291;28;20220;-69
2023/04/04 10:25:51;;;;;;;0.10;0.10;;;;;;;;;;5059510;28;20241;-69
2023/04/04 10:28:19;;;;;;;0.10;0.10;;;;;;;;;;5073897;28;20205;-69
2023/04/04 10:30:50;;;;;;;0.10;0.10;;;;;;;;;;5058729;28;20446;-70
2023/04/04 10:33:19;;;;;;;0.10;0.10;;;;;;;;;;5074274;28;20204;-69
2023/04/04 10:35:47;;;;;;;0.10;0.10;;;;;;;;;;5058756;28;20496;-69
2023/04/04 10:38:17;;;;;;;0.10;0.10;;;;;;;;;;5074146;28;20228;-69
2023/04/04 10:40:45;;;;;;;0.10;0.10;;;;;;;;;;5058278;28;20247;-69
2023/04/04 10:43:12;;;;;;;0.10;0.10;;;;;;;;;;5074254;28;20208;-69
2023/04/04 10:45:42;;;;;;;0.10;0.10;;;;;;;;;;5057621;28;20446;-69
2023/04/04 10:48:09;;;;;;;0.10;0.10;;;;;;;;;;5074767;28;20208;-69
2023/04/04 10:50:38;;;;;;;0.10;0.10;;;;;;;;;;5057118;28;20289;-68
2023/04/04 10:53:05;;;;;;;0.10;0.10;;;;;;;;;;5075282;28;20206;-68
2023/04/04 10:55:34;;;;;;;0.10;0.10;;;;;;;;;;5056560;28;20659;-68
2023/04/04 10:58:00;;;;;;;0.10;0.10;;;;;;;;;;5075799;28;20261;-67
2023/04/04 11:00:27;;;;;;;0.10;0.10;;;;;;;;;;5056141;28;20890;-68
2023/04/04 11:02:55;;;;;;;0.10;0.10;;;;;;;;;;5076645;28;20211;-68
2023/04/04 11:05:23;;;;;;;0.10;0.10;;;;;;;;;;5054885;28;20203;-68
2023/04/04 11:07:53;;;;;;;0.10;0.10;;;;;;;;;;5077311;28;20235;-68
2023/04/04 11:10:21;;;;;;;0.10;0.10;;;;;;;;;;5054109;28;20208;-68
2023/04/04 11:12:53;;;;;;;0.10;0.10;;;;;;;;;;5077885;28;20228;-68
2023/04/04 11:15:21;;;;;;;0.10;0.10;;;;;;;;;;5054272;28;20193;-66
2023/04/04 11:17:55;;;;;;;0.10;0.10;;;;;;;;;;5077454;28;20234;-68
2023/04/04 11:20:22;;;;;;;0.10;0.10;;;;;;;;;;5055113;28;20205;-66
2023/04/04 11:22:49;;;;;;;0.10;0.10;;;;;;;;;;5076763;28;20213;-69
2023/04/04 11:25:25;;;;;;;0.00;0.00;;;;;;;;;;5054145;28;20235;-67
2023/04/04 11:27:55;;;;;;;0.00;0.00;;;;;;;;;;5076606;28;20199;-67
2023/04/04 11:30:22;;;;;;;0.00;0.00;;;;;;;;;;5054827;28;20231;-66
2023/04/04 11:32:48;;;;;;;0.10;0.10;;;;;;;;;;5079319;28;20210;-66
2023/04/04 11:35:15;;;;;;;0.10;0.10;;;;;;;;;;5058159;28;20232;-69
2023/04/04 11:38:01;;;;;;;0.10;0.10;;;;;;;;;;5081691;28;20226;-69
2023/04/04 11:40:34;;;;;;;0.10;0.10;;;;;;;;;;5059866;28;20246;-70
2023/04/04 11:43:06;;;;;;;0.00;0.00;;;;;;;;;;5079168;28;20238;-70
2023/04/04 11:45:34;;;;;;;0.10;0.10;;;;;;;;;;5060168;28;20303;-70
2023/04/04 11:48:01;;;;;;;0.00;0.00;;;;;;;;;;5078835;28;20280;-70
2023/04/04 11:50:34;;;;;;;0.10;0.10;;;;;;;;;;5059593;28;20448;-70
2023/04/04 11:53:01;;;;;;;0.10;0.10;;;;;;;;;;5078932;28;20245;-70
2023/04/04 11:55:27;;;;;;;0.08;0.08;;;;;;;;;;5059557;28;20552;-70
2023/04/04 11:57:55;;;;;;;0.00;0.00;;;;;;;;;;5079561;28;20421;-70
2023/04/04 12:00:30;;;;;;;0.10;0.10;;;;;;;;;;5058380;28;20514;-70
2023/04/04 12:02:57;;;;;;;0.10;0.10;;;;;;;;;;5079731;28;20209;-70
2023/04/04 12:05:23;;;;;;;0.10;0.10;;;;;;;;;;5058735;28;20202;-70
2023/04/04 12:07:51;;;;;;;0.10;0.10;;;;;;;;;;5080243;28;20421;-69
2023/04/04 12:10:18;;;;;;;0.00;0.00;;;;;;;;;;5057611;28;20207;-69
2023/04/04 12:12:45;;;;;;;0.10;0.10;;;;;;;;;;5080644;28;20205;-70
2023/04/04 12:15:13;;;;;;;0.00;0.00;;;;;;;;;;5056446;28;20213;-69
2023/04/04 12:17:42;;;;;;;0.10;0.10;;;;;;;;;;5082813;28;20449;-70
2023/04/04 12:20:10;;;;;;;0.10;0.10;;;;;;;;;;5056648;28;20447;-71
2023/04/04 12:22:36;;;;;;;0.10;0.10;;;;;;;;;;5081706;28;20280;-70
2023/04/04 12:25:04;;;;;;;0.10;0.10;;;;;;;;;;5066317;28;20208;-71
2023/04/04 12:27:34;;;;;;;0.00;0.00;;;;;;;;;;5071765;28;20312;-70
2023/04/04 12:30:03;;;;;;;0.00;0.00;;;;;;;;;;5066532;28;20239;-70
2023/04/04 12:32:29;;;;;;;0.10;0.10;;;;;;;;;;5071729;28;20240;-71
2023/04/04 12:35:00;;;;;;;0.00;0.00;;;;;;;;;;5066217;28;20274;-70
2023/04/04 12:37:28;;;;;;;0.00;0.00;;;;;;;;;;5071515;28;20235;-71
2023/04/04 12:39:56;;;;;;;0.10;0.10;;;;;;;;;;5066449;28;20469;-71
2023/04/04 12:42:23;;;;;;;0.10;0.10;;;;;;;;;;5071543;28;20290;-70
2023/04/04 12:44:50;;;;;;;0.10;0.10;;;;;;;;;;5064662;28;20290;-70
2023/04/04 12:47:19;;;;;;;0.10;0.10;;;;;;;;;;5071460;28;20264;-69
2023/04/04 12:49:47;;;;;;;0.10;0.10;;;;;;;;;;5065903;28;20273;-70
2023/04/04 12:52:18;;;;;;;0.10;0.10;;;;;;;;;;5070984;28;20243;-70
2023/04/04 12:54:45;;;;;;;0.10;0.10;;;;;;;;;;5066181;28;20405;-70
2023/04/04 12:57:13;;;;;;;0.17;0.17;;;;;;;;;;5070933;28;20267;-70
2023/04/04 12:59:39;;;;;;;0.10;0.10;;;;;;;;;;5065635;28;20218;-71
2023/04/04 13:02:07;;;;;;;0.10;0.10;;;;;;;;;;5070637;28;20239;-70
2023/04/04 13:04:34;;;;;;;0.10;0.10;;;;;;;;;;5065654;28;20214;-71
2023/04/04 13:07:00;;;;;;;0.10;0.10;;;;;;;;;;5069943;28;20291;-70
2023/04/04 13:09:28;;;;;;;0.10;0.10;;;;;;;;;;5066581;28;20209;-71
2023/04/04 13:12:00;;;;;;;0.03;0.03;;;;;;;;;;5069222;28;20248;-71
2023/04/04 13:14:27;;;;;;;0.10;0.10;;;;;;;;;;5066421;28;20238;-71
2023/04/04 13:17:04;;;;;;;0.10;0.10;;;;;;;;;;5068713;28;20267;-70
2023/04/04 13:19:30;;;;;;;0.10;0.10;;;;;;;;;;5065592;28;20229;-70
2023/04/04 13:21:57;;;;;;;0.10;0.10;;;;;;;;;;5069162;28;20560;-70
2023/04/04 13:24:23;;;;;;;0.10;0.10;;;;;;;;;;5066542;28;20314;-70
2023/04/04 13:26:51;;;;;;;0.10;0.10;;;;;;;;;;5068178;28;20266;-70
2023/04/04 13:29:17;;;;;;;0.10;0.10;;;;;;;;;;5067157;28;20336;-71
2023/04/04 13:31:43;;;;;;;0.10;0.10;;;;;;;;;;5067301;28;20491;-70
2023/04/04 13:34:10;;;;;;;0.10;0.10;;;;;;;;;;5068255;28;20442;-71
2023/04/04 13:36:36;;;;;;;0.10;0.10;;;;;;;;;;5066393;28;20611;-70
2023/04/04 13:39:02;;;;;;;0.10;0.10;;;;;;;;;;5069033;28;20227;-70
2023/04/04 13:41:29;;;;;;;0.10;0.10;;;;;;;;;;5064829;28;20257;-69
2023/04/04 13:43:57;;;;;;;0.10;0.10;;;;;;;;;;5070469;28;20241;-71
2023/04/04 13:46:23;;;;;;;0.10;0.10;;;;;;;;;;5064216;28;20250;-71
2023/04/04 13:48:51;;;;;;;0.10;0.10;;;;;;;;;;5070622;28;20233;-71
2023/04/04 13:51:17;;;;;;;0.10;0.10;;;;;;;;;;5063482;28;20504;-71
2023/04/04 13:53:45;;;;;;;0.10;0.10;;;;;;;;;;5071373;28;20277;-70
2023/04/04 13:56:11;;;;;;;0.10;0.10;;;;;;;;;;5062039;28;20240;-70
2023/04/04 13:58:37;;;;;;;0.10;0.10;;;;;;;;;;5071873;28;20300;-70
2023/04/04 14:01:05;;;;;;;0.10;0.10;;;;;;;;;;5061024;28;20255;-70
2023/04/04 14:03:32;;;;;;;0.10;0.10;;;;;;;;;;5073172;28;20276;-69
2023/04/04 14:05:58;;;;;;;0.10;0.10;;;;;;;;;;5060871;28;20451;-70
2023/04/04 14:08:24;;;;;;;0.10;0.10;;;;;;;;;;5073314;28;20443;-71
2023/04/04 14:10:51;;;;;;;0.10;0.10;;;;;;;;;;5059765;28;20298;-71
2023/04/04 14:13:18;;;;;;;0.10;0.10;;;;;;;;;;5074117;28;20278;-60
2023/04/04 14:15:45;;;;;;;0.10;0.10;;;;;;;;;;5058859;28;20243;-60
2023/04/04 14:18:12;;;;;;;0.10;0.10;;;;;;;;;;5074725;28;20234;-61
2023/04/04 14:20:39;;;;;;;0.10;0.10;;;;;;;;;;5057928;28;20246;-61
2023/04/04 14:23:05;;;;;;;0.10;0.10;;;;;;;;;;5075494;28;20281;-61
2023/04/04 14:25:31;;;;;;;0.10;0.10;;;;;;;;;;5056888;28;20256;-62
2023/04/04 14:27:58;;;;;;;0.10;0.10;;;;;;;;;;5076410;28;20274;-60
2023/04/04 14:30:24;;;;;;;0.10;0.10;;;;;;;;;;5056017;28;20233;-60
2023/04/04 14:32:51;;;;;;;0.10;0.10;;;;;;;;;;5077067;28;20203;-62
2023/04/04 14:35:18;;;;;;;0.10;0.10;;;;;;;;;;5055102;28;20434;-69
2023/04/04 14:37:45;;;;;;;0.10;0.10;;;;;;;;;;5078083;28;20283;-69
2023/04/04 14:40:12;;;;;;;0.10;0.10;;;;;;;;;;5054056;28;20208;-67
2023/04/04 14:42:38;;;;;;;0.10;0.10;;;;;;;;;;5079032;28;20285;-69